sensor_id;sensor_type;location;lat;lon;timestamp;temperature;humidity
13944;DHT22;7044;53.286;8.534;2023-02-28T00:01:20;3.30;99.90
13944;DHT22;7044;53.286;8.534;2023-02-28T00:03:48;3.30;99.90
13944;DHT22;7044;53.286;8.534;2023-02-28T00:06:15;3.40;99.90
13944;DHT22;7044;53.286;8.534;2023-02-28T00:08:42;3.30;99.90
13944;DHT22;7044;53.286;8.534;2023-02-28T00:11:11;3.40;99.90
13944;DHT22;7044;53.286;8.534;2023-02-28T00:13:40;3.40;99.90
13944;DHT22;7044;53.286;8.534;2023-02-28T00:16:09;3.40;99.90
13944;DHT22;7044;53.286;8.534;2023-02-28T00:18:37;3.40;99.90
13944;DHT22;7044;53.286;8.534;2023-02-28T00:21:06;3.40;99.90
13944;DHT22;7044;53.286;8.534;2023-02-28T00:23:33;3.40;99.90
13944;DHT22;7044;53.286;8.534;2023-02-28T00:26:00;3.40;99.90
13944;DHT22;7044;53.286;8.534;2023-02-28T00:28:27;3.40;99.90
13944;DHT22;7044;53.286;8.534;2023-02-28T00:30:54;3.40;99.90
13944;DHT22;7044;53.286;8.534;2023-02-28T00:33:22;3.40;99.90
13944;DHT22;7044;53.286;8.534;2023-02-28T00:35:49;3.30;99.90
13944;DHT22;7044;53.286;8.534;2023-02-28T00:38:18;3.20;99.90
13944;DHT22;7044;53.286;8.534;2023-02-28T00:40:45;3.20;99.90
13944;DHT22;7044;53.286;8.534;2023-02-28T00:43:12;3.20;99.90
13944;DHT22;7044;53.286;8.534;2023-02-28T00:45:39;3.20;99.90
13944;DHT22;7044;53.286;8.534;2023-02-28T00:48:05;3.00;99.90
13944;DHT22;7044;53.286;8.534;2023-02-28T00:50:32;3.20;99.90
13944;DHT22;7044;53.286;8.534;2023-02-28T00:52:59;3.20;99.90
13944;DHT22;7044;53.286;8.534;2023-02-28T00:55:27;3.20;99.90
13944;DHT22;7044;53.286;8.534;2023-02-28T00:57:54;3.20;99.90
13944;DHT22;7044;53.286;8.534;2023-02-28T01:02:48;3.10;99.90
13944;DHT22;7044;53.286;8.534;2023-02-28T01:05:14;3.10;99.90
13944;DHT22;7044;53.286;8.534;2023-02-28T01:07:41;3.10;99.90
13944;DHT22;7044;53.286;8.534;2023-02-28T01:10:09;3.20;99.90
13944;DHT22;7044;53.286;8.534;2023-02-28T01:12:38;3.20;99.90
13944;DHT22;7044;53.286;8.534;2023-02-28T01:15:05;3.20;99.90
13944;DHT22;7044;53.286;8.534;2023-02-28T01:17:32;3.20;99.90
13944;DHT22;7044;53.286;8.534;2023-02-28T01:19:59;3.30;99.90
13944;DHT22;7044;53.286;8.534;2023-02-28T01:22:26;3.20;99.90
13944;DHT22;7044;53.286;8.534;2023-02-28T01:24:53;3.30;99.90
13944;DHT22;7044;53.286;8.534;2023-02-28T01:27:20;3.30;99.90
13944;DHT22;7044;53.286;8.534;2023-02-28T01:29:48;3.20;99.90
13944;DHT22;7044;53.286;8.534;2023-02-28T01:32:16;3.30;99.90
13944;DHT22;7044;53.286;8.534;2023-02-28T01:34:43;3.30;99.90
13944;DHT22;7044;53.286;8.534;2023-02-28T01:37:10;3.30;99.90
13944;DHT22;7044;53.286;8.534;2023-02-28T01:39:37;3.20;99.90
13944;DHT22;7044;53.286;8.534;2023-02-28T01:42:03;3.20;99.90
13944;DHT22;7044;53.286;8.534;2023-02-28T01:44:59;3.30;99.90
13944;DHT22;7044;53.286;8.534;2023-02-28T01:47:28;3.20;99.90
13944;DHT22;7044;53.286;8.534;2023-02-28T01:49:55;3.20;99.90
13944;DHT22;7044;53.286;8.534;2023-02-28T01:52:23;3.20;99.90
13944;DHT22;7044;53.286;8.534;2023-02-28T01:54:52;3.30;99.90
13944;DHT22;7044;53.286;8.534;2023-02-28T01:57:22;3.20;99.90
13944;DHT22;7044;53.286;8.534;2023-02-28T01:59:52;3.30;99.90
13944;DHT22;7044;53.286;8.534;2023-02-28T02:02:23;3.20;99.90
13944;DHT22;7044;53.286;8.534;2023-02-28T02:04:54;3.30;99.90
13944;DHT22;7044;53.286;8.534;2023-02-28T02:07:21;3.30;99.90
13944;DHT22;7044;53.286;8.534;2023-02-28T02:09:48;3.20;99.90
13944;DHT22;7044;53.286;8.534;2023-02-28T02:12:25;3.10;99.90
13944;DHT22;7044;53.286;8.534;2023-02-28T02:15:00;3.20;99.90
13944;DHT22;7044;53.286;8.534;2023-02-28T02:17:35;3.20;99.90
13944;DHT22;7044;53.286;8.534;2023-02-28T02:20:22;3.20;99.90
13944;DHT22;7044;53.286;8.534;2023-02-28T02:26:08;3.10;99.90
13944;DHT22;7044;53.286;8.534;2023-02-28T02:28:58;3.10;99.90
13944;DHT22;7044;53.286;8.534;2023-02-28T02:31:41;3.00;99.90
13944;DHT22;7044;53.286;8.534;2023-02-28T02:34:41;3.00;99.90
13944;DHT22;7044;53.286;8.534;2023-02-28T02:37:29;3.00;99.90
13944;DHT22;7044;53.286;8.534;2023-02-28T02:40:03;3.00;99.90
13944;DHT22;7044;53.286;8.534;2023-02-28T02:42:39;3.00;99.90
13944;DHT22;7044;53.286;8.534;2023-02-28T02:45:11;2.90;99.90
13944;DHT22;7044;53.286;8.534;2023-02-28T02:47:39;2.80;99.90
13944;DHT22;7044;53.286;8.534;2023-02-28T02:50:12;2.80;99.90
13944;DHT22;7044;53.286;8.534;2023-02-28T02:52:44;2.80;99.90
13944;DHT22;7044;53.286;8.534;2023-02-28T02:55:13;2.80;99.90
13944;DHT22;7044;53.286;8.534;2023-02-28T02:57:45;2.90;99.90
13944;DHT22;7044;53.286;8.534;2023-02-28T03:00:15;2.80;99.90
13944;DHT22;7044;53.286;8.534;2023-02-28T03:02:42;2.80;99.90
13944;DHT22;7044;53.286;8.534;2023-02-28T03:05:18;2.80;99.90
13944;DHT22;7044;53.286;8.534;2023-02-28T03:07:46;2.80;99.90
13944;DHT22;7044;53.286;8.534;2023-02-28T03:10:31;2.80;99.90
13944;DHT22;7044;53.286;8.534;2023-02-28T03:15:59;2.80;99.90
13944;DHT22;7044;53.286;8.534;2023-02-28T03:18:38;2.80;99.90
13944;DHT22;7044;53.286;8.534;2023-02-28T03:21:14;2.90;99.90
13944;DHT22;7044;53.286;8.534;2023-02-28T03:23:51;2.90;99.90
13944;DHT22;7044;53.286;8.534;2023-02-28T03:26:23;2.90;99.90
13944;DHT22;7044;53.286;8.534;2023-02-28T03:28:55;2.90;99.90
13944;DHT22;7044;53.286;8.534;2023-02-28T03:31:29;2.90;99.90
13944;DHT22;7044;53.286;8.534;2023-02-28T03:34:01;2.90;99.90
13944;DHT22;7044;53.286;8.534;2023-02-28T03:36:33;2.90;99.90
13944;DHT22;7044;53.286;8.534;2023-02-28T03:39:13;3.00;99.90
13944;DHT22;7044;53.286;8.534;2023-02-28T03:41:43;3.00;99.90
13944;DHT22;7044;53.286;8.534;2023-02-28T03:44:15;3.00;99.90
13944;DHT22;7044;53.286;8.534;2023-02-28T03:46:46;3.00;99.90
13944;DHT22;7044;53.286;8.534;2023-02-28T03:49:18;3.00;99.90
13944;DHT22;7044;53.286;8.534;2023-02-28T03:51:49;2.90;99.90
13944;DHT22;7044;53.286;8.534;2023-02-28T03:54:19;2.90;99.90
13944;DHT22;7044;53.286;8.534;2023-02-28T03:56:51;2.90;99.90
13944;DHT22;7044;53.286;8.534;2023-02-28T03:59:22;2.90;99.90
13944;DHT22;7044;53.286;8.534;2023-02-28T04:01:52;2.90;99.90
13944;DHT22;7044;53.286;8.534;2023-02-28T04:04:20;2.90;99.90
13944;DHT22;7044;53.286;8.534;2023-02-28T04:06:51;3.00;99.90
13944;DHT22;7044;53.286;8.534;2023-02-28T04:09:18;3.00;99.90
13944;DHT22;7044;53.286;8.534;2023-02-28T04:11:50;3.00;99.90
13944;DHT22;7044;53.286;8.534;2023-02-28T04:14:18;3.00;99.90
13944;DHT22;7044;53.286;8.534;2023-02-28T04:16:45;3.00;99.90
13944;DHT22;7044;53.286;8.534;2023-02-28T04:19:13;3.00;99.90
13944;DHT22;7044;53.286;8.534;2023-02-28T04:21:42;3.00;99.90
13944;DHT22;7044;53.286;8.534;2023-02-28T04:24:13;2.90;99.90
13944;DHT22;7044;53.286;8.534;2023-02-28T04:26:41;3.00;99.90
13944;DHT22;7044;53.286;8.534;2023-02-28T04:29:10;2.80;99.90
13944;DHT22;7044;53.286;8.534;2023-02-28T04:31:37;2.90;99.90
13944;DHT22;7044;53.286;8.534;2023-02-28T04:34:04;2.90;99.90
13944;DHT22;7044;53.286;8.534;2023-02-28T04:36:31;2.80;99.90
13944;DHT22;7044;53.286;8.534;2023-02-28T04:38:58;2.80;99.90
13944;DHT22;7044;53.286;8.534;2023-02-28T04:41:26;2.80;99.90
13944;DHT22;7044;53.286;8.534;2023-02-28T04:43:53;2.90;99.90
13944;DHT22;7044;53.286;8.534;2023-02-28T04:46:21;2.90;99.90
13944;DHT22;7044;53.286;8.534;2023-02-28T04:48:49;2.80;99.90
13944;DHT22;7044;53.286;8.534;2023-02-28T04:51:17;2.90;99.90
13944;DHT22;7044;53.286;8.534;2023-02-28T04:53:46;2.90;99.90
13944;DHT22;7044;53.286;8.534;2023-02-28T04:56:15;2.90;99.90
13944;DHT22;7044;53.286;8.534;2023-02-28T04:58:43;2.90;99.90
13944;DHT22;7044;53.286;8.534;2023-02-28T05:01:19;2.90;99.90
13944;DHT22;7044;53.286;8.534;2023-02-28T05:03:47;2.80;99.90
13944;DHT22;7044;53.286;8.534;2023-02-28T05:06:14;2.80;99.90
13944;DHT22;7044;53.286;8.534;2023-02-28T05:08:41;2.80;99.90
13944;DHT22;7044;53.286;8.534;2023-02-28T05:11:14;2.70;99.90
13944;DHT22;7044;53.286;8.534;2023-02-28T05:13:42;2.70;99.90
13944;DHT22;7044;53.286;8.534;2023-02-28T05:16:09;2.70;99.90
13944;DHT22;7044;53.286;8.534;2023-02-28T05:18:36;2.70;99.90
13944;DHT22;7044;53.286;8.534;2023-02-28T05:21:03;2.70;99.90
13944;DHT22;7044;53.286;8.534;2023-02-28T05:23:31;2.70;99.90
13944;DHT22;7044;53.286;8.534;2023-02-28T05:25:58;2.70;99.90
13944;DHT22;7044;53.286;8.534;2023-02-28T05:28:24;3.20;99.90
13944;DHT22;7044;53.286;8.534;2023-02-28T05:30:53;2.70;99.90
13944;DHT22;7044;53.286;8.534;2023-02-28T05:33:19;2.80;99.90
13944;DHT22;7044;53.286;8.534;2023-02-28T05:35:46;2.70;99.90
13944;DHT22;7044;53.286;8.534;2023-02-28T05:38:13;2.70;99.90
13944;DHT22;7044;53.286;8.534;2023-02-28T05:40:40;2.70;99.90
13944;DHT22;7044;53.286;8.534;2023-02-28T05:43:10;2.70;99.90
13944;DHT22;7044;53.286;8.534;2023-02-28T05:45:37;2.60;99.90
13944;DHT22;7044;53.286;8.534;2023-02-28T05:48:06;2.60;99.90
13944;DHT22;7044;53.286;8.534;2023-02-28T05:50:34;2.60;99.90
13944;DHT22;7044;53.286;8.534;2023-02-28T05:53:01;2.60;99.90
13944;DHT22;7044;53.286;8.534;2023-02-28T05:55:28;2.50;99.90
13944;DHT22;7044;53.286;8.534;2023-02-28T05:57:55;2.50;99.90
13944;DHT22;7044;53.286;8.534;2023-02-28T06:00:22;2.50;99.90
13944;DHT22;7044;53.286;8.534;2023-02-28T06:02:49;2.50;99.90
13944;DHT22;7044;53.286;8.534;2023-02-28T06:05:18;2.50;99.90
13944;DHT22;7044;53.286;8.534;2023-02-28T06:07:45;2.40;99.90
13944;DHT22;7044;53.286;8.534;2023-02-28T06:10:12;2.40;99.90
13944;DHT22;7044;53.286;8.534;2023-02-28T06:12:39;2.50;99.90
13944;DHT22;7044;53.286;8.534;2023-02-28T06:15:09;2.50;99.90
13944;DHT22;7044;53.286;8.534;2023-02-28T06:17:37;2.60;99.90
13944;DHT22;7044;53.286;8.534;2023-02-28T06:20:06;2.50;99.90
13944;DHT22;7044;53.286;8.534;2023-02-28T06:22:35;2.50;99.90
13944;DHT22;7044;53.286;8.534;2023-02-28T06:25:02;2.40;99.90
13944;DHT22;7044;53.286;8.534;2023-02-28T06:27:30;2.40;99.90
13944;DHT22;7044;53.286;8.534;2023-02-28T06:29:56;2.40;99.90
13944;DHT22;7044;53.286;8.534;2023-02-28T06:32:23;2.40;99.90
13944;DHT22;7044;53.286;8.534;2023-02-28T06:34:50;2.30;99.90
13944;DHT22;7044;53.286;8.534;2023-02-28T06:37:18;2.20;99.90
13944;DHT22;7044;53.286;8.534;2023-02-28T06:39:46;2.20;99.90
13944;DHT22;7044;53.286;8.534;2023-02-28T06:42:13;2.20;99.90
13944;DHT22;7044;53.286;8.534;2023-02-28T06:44:41;2.10;99.90
13944;DHT22;7044;53.286;8.534;2023-02-28T06:47:08;2.10;99.90
13944;DHT22;7044;53.286;8.534;2023-02-28T06:49:36;2.10;99.90
13944;DHT22;7044;53.286;8.534;2023-02-28T06:52:04;2.10;99.90
13944;DHT22;7044;53.286;8.534;2023-02-28T06:54:31;2.00;99.90
13944;DHT22;7044;53.286;8.534;2023-02-28T06:56:59;2.10;99.90
13944;DHT22;7044;53.286;8.534;2023-02-28T06:59:26;2.20;99.90
13944;DHT22;7044;53.286;8.534;2023-02-28T07:01:53;2.20;99.90
13944;DHT22;7044;53.286;8.534;2023-02-28T07:04:21;2.20;99.90
13944;DHT22;7044;53.286;8.534;2023-02-28T07:06:48;2.20;99.90
13944;DHT22;7044;53.286;8.534;2023-02-28T07:09:15;2.20;99.90
13944;DHT22;7044;53.286;8.534;2023-02-28T07:11:42;2.20;99.90
13944;DHT22;7044;53.286;8.534;2023-02-28T07:14:10;2.20;99.90
13944;DHT22;7044;53.286;8.534;2023-02-28T07:16:37;2.10;99.90
13944;DHT22;7044;53.286;8.534;2023-02-28T07:19:04;2.10;99.90
13944;DHT22;7044;53.286;8.534;2023-02-28T07:21:31;2.10;99.90
13944;DHT22;7044;53.286;8.534;2023-02-28T07:23:58;2.20;99.90
13944;DHT22;7044;53.286;8.534;2023-02-28T07:26:25;2.30;99.90
13944;DHT22;7044;53.286;8.534;2023-02-28T07:28:52;2.40;99.90
13944;DHT22;7044;53.286;8.534;2023-02-28T07:31:21;2.40;99.90
13944;DHT22;7044;53.286;8.534;2023-02-28T07:33:47;2.50;99.90
13944;DHT22;7044;53.286;8.534;2023-02-28T07:36:16;2.50;99.90
13944;DHT22;7044;53.286;8.534;2023-02-28T07:38:45;2.60;99.90
13944;DHT22;7044;53.286;8.534;2023-02-28T07:41:13;2.60;99.90
13944;DHT22;7044;53.286;8.534;2023-02-28T07:43:40;2.60;99.90
13944;DHT22;7044;53.286;8.534;2023-02-28T07:46:09;2.70;99.90
13944;DHT22;7044;53.286;8.534;2023-02-28T07:48:38;2.70;99.90
13944;DHT22;7044;53.286;8.534;2023-02-28T07:51:05;2.80;99.90
13944;DHT22;7044;53.286;8.534;2023-02-28T07:53:32;2.80;99.90
13944;DHT22;7044;53.286;8.534;2023-02-28T07:55:59;2.90;99.90
13944;DHT22;7044;53.286;8.534;2023-02-28T07:58:28;2.90;99.90
13944;DHT22;7044;53.286;8.534;2023-02-28T08:00:55;2.90;99.90
13944;DHT22;7044;53.286;8.534;2023-02-28T08:03:23;3.00;99.90
13944;DHT22;7044;53.286;8.534;2023-02-28T08:05:51;3.00;99.90
13944;DHT22;7044;53.286;8.534;2023-02-28T08:08:19;3.00;99.90
13944;DHT22;7044;53.286;8.534;2023-02-28T08:10:46;3.00;99.90
13944;DHT22;7044;53.286;8.534;2023-02-28T08:13:12;3.10;99.90
13944;DHT22;7044;53.286;8.534;2023-02-28T08:15:40;3.10;99.90
13944;DHT22;7044;53.286;8.534;2023-02-28T08:18:07;3.20;99.90
13944;DHT22;7044;53.286;8.534;2023-02-28T08:20:34;3.30;99.90
13944;DHT22;7044;53.286;8.534;2023-02-28T08:23:02;3.30;99.90
13944;DHT22;7044;53.286;8.534;2023-02-28T08:25:29;3.30;99.90
13944;DHT22;7044;53.286;8.534;2023-02-28T08:27:56;3.40;99.90
13944;DHT22;7044;53.286;8.534;2023-02-28T08:30:23;3.40;99.90
13944;DHT22;7044;53.286;8.534;2023-02-28T08:32:49;3.50;99.90
13944;DHT22;7044;53.286;8.534;2023-02-28T08:35:16;3.50;99.90
13944;DHT22;7044;53.286;8.534;2023-02-28T08:37:43;3.50;99.90
13944;DHT22;7044;53.286;8.534;2023-02-28T08:40:12;3.60;99.90
13944;DHT22;7044;53.286;8.534;2023-02-28T08:42:43;3.70;99.90
13944;DHT22;7044;53.286;8.534;2023-02-28T08:45:11;3.70;99.90
13944;DHT22;7044;53.286;8.534;2023-02-28T08:47:38;3.70;99.90
13944;DHT22;7044;53.286;8.534;2023-02-28T08:50:05;3.80;99.90
13944;DHT22;7044;53.286;8.534;2023-02-28T08:52:32;3.80;99.90
13944;DHT22;7044;53.286;8.534;2023-02-28T08:54:59;3.80;99.90
13944;DHT22;7044;53.286;8.534;2023-02-28T08:57:27;3.90;99.90
13944;DHT22;7044;53.286;8.534;2023-02-28T08:59:54;3.90;99.90
13944;DHT22;7044;53.286;8.534;2023-02-28T09:02:21;3.90;99.90
13944;DHT22;7044;53.286;8.534;2023-02-28T09:04:48;4.00;99.90
13944;DHT22;7044;53.286;8.534;2023-02-28T09:07:15;4.00;99.90
13944;DHT22;7044;53.286;8.534;2023-02-28T09:09:42;4.00;99.90
13944;DHT22;7044;53.286;8.534;2023-02-28T09:12:19;4.10;99.90
13944;DHT22;7044;53.286;8.534;2023-02-28T09:14:47;4.10;99.90
13944;DHT22;7044;53.286;8.534;2023-02-28T09:17:14;4.20;99.90
13944;DHT22;7044;53.286;8.534;2023-02-28T09:19:41;4.20;99.90
13944;DHT22;7044;53.286;8.534;2023-02-28T09:22:08;4.20;99.90
13944;DHT22;7044;53.286;8.534;2023-02-28T09:24:36;4.20;99.90
13944;DHT22;7044;53.286;8.534;2023-02-28T09:27:04;4.20;99.90
13944;DHT22;7044;53.286;8.534;2023-02-28T09:29:31;4.20;99.90
13944;DHT22;7044;53.286;8.534;2023-02-28T09:31:59;4.20;99.90
13944;DHT22;7044;53.286;8.534;2023-02-28T09:34:27;4.20;99.90
13944;DHT22;7044;53.286;8.534;2023-02-28T09:36:56;4.20;99.90
13944;DHT22;7044;53.286;8.534;2023-02-28T09:39:23;4.30;99.90
13944;DHT22;7044;53.286;8.534;2023-02-28T09:41:52;4.30;99.90
13944;DHT22;7044;53.286;8.534;2023-02-28T09:44:26;4.30;99.90
13944;DHT22;7044;53.286;8.534;2023-02-28T09:46:58;4.40;99.90
13944;DHT22;7044;53.286;8.534;2023-02-28T09:49:34;4.40;99.90
13944;DHT22;7044;53.286;8.534;2023-02-28T09:52:05;4.40;99.90
13944;DHT22;7044;53.286;8.534;2023-02-28T09:54:35;4.40;99.90
13944;DHT22;7044;53.286;8.534;2023-02-28T09:57:14;4.40;99.90
13944;DHT22;7044;53.286;8.534;2023-02-28T10:00:00;4.40;99.90
13944;DHT22;7044;53.286;8.534;2023-02-28T10:02:46;4.50;99.90
13944;DHT22;7044;53.286;8.534;2023-02-28T10:05:16;4.40;99.90
13944;DHT22;7044;53.286;8.534;2023-02-28T10:08:03;4.40;99.90
13944;DHT22;7044;53.286;8.534;2023-02-28T10:10:36;4.50;99.90
13944;DHT22;7044;53.286;8.534;2023-02-28T10:13:06;4.50;99.90
13944;DHT22;7044;53.286;8.534;2023-02-28T10:15:39;4.60;99.90
13944;DHT22;7044;53.286;8.534;2023-02-28T10:18:16;4.60;99.90
13944;DHT22;7044;53.286;8.534;2023-02-28T10:20:43;4.70;99.90
13944;DHT22;7044;53.286;8.534;2023-02-28T10:23:14;4.70;99.90
13944;DHT22;7044;53.286;8.534;2023-02-28T10:25:47;4.70;99.90
13944;DHT22;7044;53.286;8.534;2023-02-28T10:28:16;4.80;99.90
13944;DHT22;7044;53.286;8.534;2023-02-28T10:30:47;4.80;99.90
13944;DHT22;7044;53.286;8.534;2023-02-28T10:33:21;4.90;99.90
13944;DHT22;7044;53.286;8.534;2023-02-28T10:35:48;4.90;99.90
13944;DHT22;7044;53.286;8.534;2023-02-28T10:38:18;5.00;99.90
13944;DHT22;7044;53.286;8.534;2023-02-28T10:40:45;5.00;99.90
13944;DHT22;7044;53.286;8.534;2023-02-28T10:43:21;5.00;99.90
13944;DHT22;7044;53.286;8.534;2023-02-28T10:45:56;5.00;99.90
13944;DHT22;7044;53.286;8.534;2023-02-28T10:48:30;5.00;99.90
13944;DHT22;7044;53.286;8.534;2023-02-28T10:50:58;4.90;99.90
13944;DHT22;7044;53.286;8.534;2023-02-28T10:53:32;5.00;99.90
13944;DHT22;7044;53.286;8.534;2023-02-28T10:56:02;5.00;99.90
13944;DHT22;7044;53.286;8.534;2023-02-28T10:58:31;5.00;99.90
13944;DHT22;7044;53.286;8.534;2023-02-28T11:00:59;5.00;99.90
13944;DHT22;7044;53.286;8.534;2023-02-28T11:03:32;5.10;99.90
13944;DHT22;7044;53.286;8.534;2023-02-28T11:06:04;5.10;99.90
13944;DHT22;7044;53.286;8.534;2023-02-28T11:08:31;5.20;99.90
13944;DHT22;7044;53.286;8.534;2023-02-28T11:11:00;5.10;99.90
13944;DHT22;7044;53.286;8.534;2023-02-28T11:13:33;5.20;99.90
13944;DHT22;7044;53.286;8.534;2023-02-28T11:16:03;5.30;99.90
13944;DHT22;7044;53.286;8.534;2023-02-28T11:18:37;5.30;99.90
13944;DHT22;7044;53.286;8.534;2023-02-28T11:21:05;5.40;99.90
13944;DHT22;7044;53.286;8.534;2023-02-28T11:23:34;5.40;99.90
13944;DHT22;7044;53.286;8.534;2023-02-28T11:26:04;5.40;99.90
13944;DHT22;7044;53.286;8.534;2023-02-28T11:28:36;5.30;99.90
13944;DHT22;7044;53.286;8.534;2023-02-28T11:31:14;5.20;99.90
13944;DHT22;7044;53.286;8.534;2023-02-28T11:33:44;5.30;99.90
13944;DHT22;7044;53.286;8.534;2023-02-28T11:36:16;5.30;99.90
13944;DHT22;7044;53.286;8.534;2023-02-28T11:38:45;5.30;99.90
13944;DHT22;7044;53.286;8.534;2023-02-28T11:41:26;5.20;99.90
13944;DHT22;7044;53.286;8.534;2023-02-28T11:44:20;5.30;99.90
13944;DHT22;7044;53.286;8.534;2023-02-28T11:46:52;5.20;99.90
13944;DHT22;7044;53.286;8.534;2023-02-28T11:49:32;5.30;99.90
13944;DHT22;7044;53.286;8.534;2023-02-28T11:52:06;5.40;99.90
13944;DHT22;7044;53.286;8.534;2023-02-28T11:54:54;5.50;99.90
13944;DHT22;7044;53.286;8.534;2023-02-28T11:57:33;5.50;99.90
13944;DHT22;7044;53.286;8.534;2023-02-28T12:00:08;5.50;99.90
13944;DHT22;7044;53.286;8.534;2023-02-28T12:02:52;5.50;99.90
13944;DHT22;7044;53.286;8.534;2023-02-28T12:05:30;5.50;99.90
13944;DHT22;7044;53.286;8.534;2023-02-28T12:08:06;5.50;99.90
13944;DHT22;7044;53.286;8.534;2023-02-28T12:10:48;5.40;99.90
13944;DHT22;7044;53.286;8.534;2023-02-28T12:13:24;5.50;99.90
13944;DHT22;7044;53.286;8.534;2023-02-28T12:16:12;5.50;99.90
13944;DHT22;7044;53.286;8.534;2023-02-28T12:18:59;5.50;99.90
13944;DHT22;7044;53.286;8.534;2023-02-28T12:21:35;5.50;99.90
13944;DHT22;7044;53.286;8.534;2023-02-28T12:27:07;5.60;99.90
13944;DHT22;7044;53.286;8.534;2023-02-28T12:29:44;5.60;99.90
13944;DHT22;7044;53.286;8.534;2023-02-28T12:32:15;5.70;99.90
13944;DHT22;7044;53.286;8.534;2023-02-28T12:34:47;5.80;99.90
13944;DHT22;7044;53.286;8.534;2023-02-28T12:37:21;5.70;99.90
13944;DHT22;7044;53.286;8.534;2023-02-28T12:39:54;5.70;99.90
13944;DHT22;7044;53.286;8.534;2023-02-28T12:42:25;5.60;99.90
13944;DHT22;7044;53.286;8.534;2023-02-28T12:44:56;5.60;99.90
13944;DHT22;7044;53.286;8.534;2023-02-28T12:47:24;5.60;99.90
13944;DHT22;7044;53.286;8.534;2023-02-28T12:49:55;5.70;99.90
13944;DHT22;7044;53.286;8.534;2023-02-28T12:52:30;5.80;99.90
13944;DHT22;7044;53.286;8.534;2023-02-28T12:55:02;5.80;99.90
13944;DHT22;7044;53.286;8.534;2023-02-28T12:57:35;5.80;99.90
13944;DHT22;7044;53.286;8.534;2023-02-28T13:00:09;5.80;99.90
13944;DHT22;7044;53.286;8.534;2023-02-28T13:05:49;5.90;99.90
13944;DHT22;7044;53.286;8.534;2023-02-28T13:11:33;5.90;99.90
13944;DHT22;7044;53.286;8.534;2023-02-28T13:14:02;5.90;99.90
13944;DHT22;7044;53.286;8.534;2023-02-28T13:16:58;5.90;99.90
13944;DHT22;7044;53.286;8.534;2023-02-28T13:19:28;5.90;99.90
13944;DHT22;7044;53.286;8.534;2023-02-28T13:21:56;5.90;99.90
13944;DHT22;7044;53.286;8.534;2023-02-28T13:24:46;6.00;99.90
13944;DHT22;7044;53.286;8.534;2023-02-28T13:27:35;5.90;99.90
13944;DHT22;7044;53.286;8.534;2023-02-28T13:33:27;5.90;99.90
13944;DHT22;7044;53.286;8.534;2023-02-28T13:36:19;5.90;99.90
13944;DHT22;7044;53.286;8.534;2023-02-28T13:38:50;6.00;99.90
13944;DHT22;7044;53.286;8.534;2023-02-28T13:41:46;6.00;99.90
13944;DHT22;7044;53.286;8.534;2023-02-28T13:44:15;6.00;99.90
13944;DHT22;7044;53.286;8.534;2023-02-28T13:47:21;6.00;99.90
13944;DHT22;7044;53.286;8.534;2023-02-28T13:49:50;6.00;99.90
13944;DHT22;7044;53.286;8.534;2023-02-28T13:52:21;6.00;99.90
13944;DHT22;7044;53.286;8.534;2023-02-28T13:57:53;6.10;99.90
13944;DHT22;7044;53.286;8.534;2023-02-28T14:00:35;6.10;99.90
13944;DHT22;7044;53.286;8.534;2023-02-28T14:03:14;6.20;99.90
13944;DHT22;7044;53.286;8.534;2023-02-28T14:05:44;6.30;99.90
13944;DHT22;7044;53.286;8.534;2023-02-28T14:08:15;6.30;99.90
13944;DHT22;7044;53.286;8.534;2023-02-28T14:10:45;6.30;99.90
13944;DHT22;7044;53.286;8.534;2023-02-28T14:13:39;6.20;99.90
13944;DHT22;7044;53.286;8.534;2023-02-28T14:16:11;6.30;99.90
13944;DHT22;7044;53.286;8.534;2023-02-28T14:18:40;6.20;99.90
13944;DHT22;7044;53.286;8.534;2023-02-28T14:21:12;6.20;99.90
13944;DHT22;7044;53.286;8.534;2023-02-28T14:30:00;6.30;99.90
13944;DHT22;7044;53.286;8.534;2023-02-28T14:32:34;6.40;99.90
13944;DHT22;7044;53.286;8.534;2023-02-28T14:35:15;6.50;99.90
13944;DHT22;7044;53.286;8.534;2023-02-28T14:37:44;6.50;99.90
13944;DHT22;7044;53.286;8.534;2023-02-28T14:40:15;6.40;99.90
13944;DHT22;7044;53.286;8.534;2023-02-28T14:42:48;6.30;99.90
13944;DHT22;7044;53.286;8.534;2023-02-28T14:45:20;6.30;99.90
13944;DHT22;7044;53.286;8.534;2023-02-28T14:47:49;6.30;99.90
13944;DHT22;7044;53.286;8.534;2023-02-28T14:50:18;6.30;99.90
13944;DHT22;7044;53.286;8.534;2023-02-28T14:52:46;6.30;99.90
13944;DHT22;7044;53.286;8.534;2023-02-28T14:55:17;6.30;99.90
13944;DHT22;7044;53.286;8.534;2023-02-28T14:57:51;6.20;99.90
13944;DHT22;7044;53.286;8.534;2023-02-28T15:00:24;6.30;99.90
13944;DHT22;7044;53.286;8.534;2023-02-28T15:02:52;6.30;99.90
13944;DHT22;7044;53.286;8.534;2023-02-28T15:05:26;6.20;99.90
13944;DHT22;7044;53.286;8.534;2023-02-28T15:08:10;6.30;99.90
13944;DHT22;7044;53.286;8.534;2023-02-28T15:10:38;6.30;99.90
13944;DHT22;7044;53.286;8.534;2023-02-28T15:13:09;6.30;99.90
13944;DHT22;7044;53.286;8.534;2023-02-28T15:15:45;6.30;99.90
13944;DHT22;7044;53.286;8.534;2023-02-28T15:18:27;6.30;99.90
13944;DHT22;7044;53.286;8.534;2023-02-28T15:20:56;6.30;99.90
13944;DHT22;7044;53.286;8.534;2023-02-28T15:23:24;6.40;99.90
13944;DHT22;7044;53.286;8.534;2023-02-28T15:25:52;6.40;99.90
13944;DHT22;7044;53.286;8.534;2023-02-28T15:28:22;6.40;99.90
13944;DHT22;7044;53.286;8.534;2023-02-28T15:30:56;6.30;99.90
13944;DHT22;7044;53.286;8.534;2023-02-28T15:33:25;6.30;99.90
13944;DHT22;7044;53.286;8.534;2023-02-28T15:36:07;6.30;99.90
13944;DHT22;7044;53.286;8.534;2023-02-28T15:38:37;6.30;99.90
13944;DHT22;7044;53.286;8.534;2023-02-28T15:41:04;6.30;99.90
13944;DHT22;7044;53.286;8.534;2023-02-28T15:43:35;6.30;99.90
13944;DHT22;7044;53.286;8.534;2023-02-28T15:46:04;6.30;99.90
13944;DHT22;7044;53.286;8.534;2023-02-28T15:48:34;6.20;99.90
13944;DHT22;7044;53.286;8.534;2023-02-28T15:51:06;6.20;99.90
13944;DHT22;7044;53.286;8.534;2023-02-28T15:53:35;6.00;99.90
13944;DHT22;7044;53.286;8.534;2023-02-28T15:56:04;6.20;99.90
13944;DHT22;7044;53.286;8.534;2023-02-28T15:58:32;6.20;99.90
13944;DHT22;7044;53.286;8.534;2023-02-28T16:01:04;6.10;99.90
13944;DHT22;7044;53.286;8.534;2023-02-28T16:03:39;6.10;99.90
13944;DHT22;7044;53.286;8.534;2023-02-28T16:06:38;6.10;99.90
13944;DHT22;7044;53.286;8.534;2023-02-28T16:09:10;6.10;99.90
13944;DHT22;7044;53.286;8.534;2023-02-28T16:11:40;6.00;99.90
13944;DHT22;7044;53.286;8.534;2023-02-28T16:14:16;6.00;99.90
13944;DHT22;7044;53.286;8.534;2023-02-28T16:16:46;5.90;99.90
13944;DHT22;7044;53.286;8.534;2023-02-28T16:19:14;5.90;99.90
13944;DHT22;7044;53.286;8.534;2023-02-28T16:21:41;5.90;99.90
13944;DHT22;7044;53.286;8.534;2023-02-28T16:24:07;5.80;99.90
13944;DHT22;7044;53.286;8.534;2023-02-28T16:26:35;5.80;99.90
13944;DHT22;7044;53.286;8.534;2023-02-28T16:29:04;5.70;99.90
13944;DHT22;7044;53.286;8.534;2023-02-28T16:31:35;5.60;99.90
13944;DHT22;7044;53.286;8.534;2023-02-28T16:34:05;5.60;99.90
13944;DHT22;7044;53.286;8.534;2023-02-28T16:36:32;5.60;99.90
13944;DHT22;7044;53.286;8.534;2023-02-28T16:38:58;5.60;99.90
13944;DHT22;7044;53.286;8.534;2023-02-28T16:41:27;5.50;99.90
13944;DHT22;7044;53.286;8.534;2023-02-28T16:43:56;5.50;99.90
13944;DHT22;7044;53.286;8.534;2023-02-28T16:46:29;5.40;99.90
13944;DHT22;7044;53.286;8.534;2023-02-28T16:48:57;5.40;99.90
13944;DHT22;7044;53.286;8.534;2023-02-28T16:51:26;5.30;99.90
13944;DHT22;7044;53.286;8.534;2023-02-28T16:53:53;5.30;99.90
13944;DHT22;7044;53.286;8.534;2023-02-28T16:56:22;5.20;99.90